Time;durP1;ratioP1;P1;durP2;ratioP2;P2;SDS_P1;SDS_P2;PMS_P1;PMS_P2;Temp;Humidity;BMP_temperature;BMP_pressure;BME280_temperature;BME280_humidity;BME280_pressure;Samples;Min_cycle;Max_cycle;Signal;HPM_P1;HPM_P2
2023/09/29 00:00:35;;;;;;;9.82;4.95;;;21.30;58.10;;;;;;5057612;28;20056;-44
2023/09/29 00:03:07;;;;;;;7.53;4.40;;;21.40;58.10;;;;;;5058323;28;20056;-43
2023/09/29 00:05:34;;;;;;;7.03;4.88;;;21.40;58.10;;;;;;5059162;28;20079;-43
2023/09/29 00:08:02;;;;;;;8.63;5.03;;;21.40;58.10;;;;;;5058219;28;20064;-43
2023/09/29 00:10:30;;;;;;;7.75;5.20;;;21.40;58.10;;;;;;5057834;28;20673;-43
2023/09/29 00:12:57;;;;;;;10.52;4.90;;;21.40;58.10;;;;;;5058557;28;20056;-45
2023/09/29 00:15:24;;;;;;;7.75;4.97;;;21.40;58.10;;;;;;5059117;28;20060;-43
2023/09/29 00:17:51;;;;;;;8.93;4.45;;;21.40;58.20;;;;;;5058004;28;20052;-44
2023/09/29 00:20:23;;;;;;;10.10;4.88;;;21.40;58.10;;;;;;5057213;28;20063;-42
2023/09/29 00:22:52;;;;;;;11.05;5.28;;;21.40;58.20;;;;;;5057504;28;20618;-43
2023/09/29 00:25:19;;;;;;;11.38;5.20;;;21.40;58.20;;;;;;5058167;28;20064;-41
2023/09/29 00:27:47;;;;;;;8.90;4.72;;;21.40;58.20;;;;;;5057504;28;20079;-42
2023/09/29 00:30:15;;;;;;;8.75;5.00;;;21.40;58.20;;;;;;5057644;28;20063;-42
2023/09/29 00:32:46;;;;;;;10.27;5.03;;;21.40;58.30;;;;;;5058675;28;20071;-42
2023/09/29 00:35:19;;;;;;;9.70;4.40;;;21.40;58.30;;;;;;5061384;28;20485;-42
2023/09/29 00:37:48;;;;;;;7.68;4.70;;;21.40;58.30;;;;;;5062834;28;20581;-44
2023/09/29 00:40:16;;;;;;;8.65;5.00;;;21.40;58.50;;;;;;5060120;28;20499;-43
2023/09/29 00:42:44;;;;;;;9.05;4.35;;;21.40;58.30;;;;;;5060911;28;20067;-43
2023/09/29 00:45:12;;;;;;;9.00;4.28;;;21.40;58.30;;;;;;5060890;28;20052;-45
2023/09/29 00:47:40;;;;;;;7.72;5.05;;;21.40;58.30;;;;;;5059409;28;20515;-45
2023/09/29 00:50:10;;;;;;;7.35;4.75;;;21.40;58.30;;;;;;5062009;28;20944;-47
2023/09/29 00:52:39;;;;;;;6.72;4.55;;;21.40;58.40;;;;;;5061030;28;20385;-44
2023/09/29 00:55:11;;;;;;;9.35;4.65;;;21.50;58.40;;;;;;5061099;28;20063;-43
2023/09/29 00:57:39;;;;;;;7.10;4.18;;;21.50;58.40;;;;;;5061414;28;20072;-37
2023/09/29 01:00:13;;;;;;;6.78;3.95;;;21.50;58.40;;;;;;5059048;28;20051;-36
2023/09/29 01:02:43;;;;;;;;;;;21.50;58.40;;;;;;5060584;28;20052;-37
2023/09/29 01:05:12;;;;;;;9.73;4.63;;;21.50;58.40;;;;;;5059120;28;19931;-37
2023/09/29 01:07:41;;;;;;;9.98;4.50;;;21.50;58.20;;;;;;5063001;28;20400;-37
2023/09/29 01:10:13;;;;;;;8.18;4.45;;;21.50;58.20;;;;;;5060799;28;20052;-36
2023/09/29 01:12:41;;;;;;;9.23;4.55;;;21.50;58.20;;;;;;5061127;28;20048;-36
2023/09/29 01:15:12;;;;;;;7.22;4.72;;;21.50;58.20;;;;;;5061118;28;20052;-36
2023/09/29 01:17:41;;;;;;;8.07;4.72;;;21.50;58.20;;;;;;5059356;28;20056;-43
2023/09/29 01:20:13;;;;;;;5.78;3.92;;;21.50;58.30;;;;;;5058347;28;20093;-36
2023/09/29 01:22:46;;;;;;;7.93;4.20;;;21.50;58.30;;;;;;5059478;28;20053;-37
2023/09/29 01:25:15;;;;;;;7.32;4.45;;;21.50;58.30;;;;;;5062904;28;20074;-37
2023/09/29 01:27:43;;;;;;;7.05;4.65;;;21.50;58.30;;;;;;5060396;28;20060;-36
2023/09/29 01:30:13;;;;;;;7.32;4.20;;;21.50;58.30;;;;;;5059378;28;20049;-36
2023/09/29 01:32:41;;;;;;;6.20;4.22;;;21.50;58.30;;;;;;5058878;28;20060;-39
2023/09/29 01:35:10;;;;;;;6.63;4.20;;;21.50;58.30;;;;;;5058779;28;20045;-37
2023/09/29 01:37:38;;;;;;;7.43;4.30;;;21.50;58.40;;;;;;5059204;28;20048;-37
2023/09/29 01:40:07;;;;;;;9.30;4.63;;;21.50;58.40;;;;;;5062721;28;20052;-37
2023/09/29 01:42:36;;;;;;;6.55;4.10;;;21.50;58.30;;;;;;5060144;28;20056;-36
2023/09/29 01:45:05;;;;;;;11.80;4.90;;;21.40;58.30;;;;;;5058179;28;20415;-36
2023/09/29 01:47:32;;;;;;;9.35;4.30;;;21.50;58.40;;;;;;5060851;28;20079;-35
2023/09/29 01:50:00;;;;;;;7.47;4.35;;;21.40;58.30;;;;;;5059756;28;20056;-37
2023/09/29 01:52:27;;;;;;;7.53;4.32;;;21.40;58.30;;;;;;5059713;28;20048;-36
2023/09/29 01:54:57;;;;;;;8.20;4.10;;;21.40;58.40;;;;;;5061167;28;20052;-36
2023/09/29 01:57:24;;;;;;;12.27;4.82;;;21.50;58.40;;;;;;5060182;28;20063;-36
2023/09/29 01:59:54;;;;;;;7.07;4.05;;;21.50;58.40;;;;;;5060109;28;20056;-36
2023/09/29 02:02:21;;;;;;;8.23;4.40;;;21.40;58.40;;;;;;5058247;28;20056;-42
2023/09/29 02:04:49;;;;;;;7.20;4.18;;;21.40;58.40;;;;;;5059462;28;20053;-37
2023/09/29 02:07:16;;;;;;;6.18;4.40;;;21.40;58.40;;;;;;5061536;28;20064;-43
2023/09/29 02:09:43;;;;;;;8.05;4.70;;;21.40;58.50;;;;;;5060926;28;20052;-43
2023/09/29 02:12:11;;;;;;;10.57;4.28;;;21.40;58.50;;;;;;5058455;28;20065;-42
2023/09/29 02:14:38;;;;;;;8.90;4.28;;;21.40;58.50;;;;;;5059967;28;20457;-44
2023/09/29 02:17:08;;;;;;;9.95;4.43;;;21.40;58.50;;;;;;5058341;28;20044;-44
2023/09/29 02:19:35;;;;;;;6.18;3.75;;;21.40;58.60;;;;;;5056911;28;20048;-45
2023/09/29 02:22:04;;;;;;;8.43;4.20;;;21.40;58.60;;;;;;5059058;28;20052;-42
2023/09/29 02:24:33;;;;;;;6.25;4.13;;;21.40;58.60;;;;;;5058576;28;20058;-43
2023/09/29 02:27:00;;;;;;;6.70;4.35;;;21.40;58.60;;;;;;5059750;28;20052;-44
2023/09/29 02:29:27;;;;;;;7.60;4.20;;;21.40;58.70;;;;;;5057542;28;20052;-43
2023/09/29 02:31:56;;;;;;;9.57;4.45;;;21.40;58.70;;;;;;5056558;28;20052;-44
2023/09/29 02:34:26;;;;;;;7.35;4.43;;;21.40;58.70;;;;;;5058964;28;20397;-44
2023/09/29 02:36:53;;;;;;;7.75;4.30;;;21.40;58.70;;;;;;5058372;28;20119;-42
2023/09/29 02:39:20;;;;;;;11.40;4.72;;;21.50;58.80;;;;;;5058723;28;20056;-43
2023/09/29 02:41:48;;;;;;;9.77;4.47;;;21.40;58.80;;;;;;5056704;28;20488;-41
2023/09/29 02:44:15;;;;;;;6.97;4.43;;;21.40;58.80;;;;;;5058257;28;20504;-42
2023/09/29 02:46:42;;;;;;;5.72;3.67;;;21.50;58.80;;;;;;5057164;28;21542;-44
2023/09/29 02:49:10;;;;;;;10.90;4.68;;;21.40;58.80;;;;;;5057071;28;20577;-43
2023/09/29 02:51:38;;;;;;;7.18;4.18;;;21.40;58.90;;;;;;5057226;28;20045;-42
2023/09/29 02:54:10;;;;;;;11.75;4.70;;;21.50;58.90;;;;;;5057943;28;20049;-43
2023/09/29 02:56:37;;;;;;;8.15;4.50;;;21.50;58.90;;;;;;5053156;28;20059;-42
2023/09/29 02:59:05;;;;;;;8.43;4.35;;;21.50;59.00;;;;;;5055753;28;20061;-42
2023/09/29 03:01:32;;;;;;;10.57;4.45;;;21.50;59.00;;;;;;5058122;28;20052;-44
2023/09/29 03:04:01;;;;;;;6.07;3.85;;;21.50;58.90;;;;;;5057179;28;20059;-45
2023/09/29 03:06:29;;;;;;;7.82;4.07;;;21.50;59.00;;;;;;5059645;28;20075;-43
2023/09/29 03:08:58;;;;;;;8.52;4.00;;;21.50;58.90;;;;;;5060880;28;20075;-43
2023/09/29 03:11:26;;;;;;;6.30;3.55;;;21.50;58.90;;;;;;5060954;28;20532;-44
2023/09/29 03:13:54;;;;;;;7.15;3.78;;;21.50;58.90;;;;;;5062315;28;20055;-43
2023/09/29 03:16:21;;;;;;;6.00;4.03;;;21.50;58.90;;;;;;5058937;28;20060;-43
2023/09/29 03:18:49;;;;;;;6.90;3.72;;;21.50;58.90;;;;;;5058865;28;20052;-44
2023/09/29 03:21:16;;;;;;;6.25;3.97;;;21.50;58.90;;;;;;5056930;28;20052;-41
2023/09/29 03:23:45;;;;;;;10.93;3.70;;;21.50;58.90;;;;;;5057425;28;20052;-41
2023/09/29 03:26:21;;;;;;;8.35;4.50;;;21.50;58.90;;;;;;5058778;28;20059;-43
2023/09/29 03:28:49;;;;;;;6.80;4.03;;;21.50;58.90;;;;;;5062315;28;20420;-44
2023/09/29 03:31:18;;;;;;;5.97;3.60;;;21.50;58.90;;;;;;5060071;28;20045;-46
2023/09/29 03:33:45;;;;;;;6.60;3.90;;;21.50;58.90;;;;;;5060678;28;20053;-44
2023/09/29 03:36:12;;;;;;;6.90;3.78;;;21.50;58.90;;;;;;5058777;28;21922;-44
2023/09/29 03:38:39;;;;;;;6.75;4.20;;;21.50;58.90;;;;;;5057209;28;20062;-45
2023/09/29 03:41:08;;;;;;;9.43;3.80;;;21.50;58.90;;;;;;5057284;28;20941;-43
2023/09/29 03:43:37;;;;;;;9.65;4.28;;;21.50;58.90;;;;;;5053328;28;20535;-43
2023/09/29 03:46:04;;;;;;;9.75;4.00;;;21.50;58.90;;;;;;5056259;28;20064;-43
2023/09/29 03:48:31;;;;;;;7.82;4.18;;;21.50;58.90;;;;;;5058479;28;20071;-42
2023/09/29 03:51:02;;;;;;;8.80;4.18;;;21.50;58.90;;;;;;5055666;28;20056;-44
2023/09/29 03:53:29;;;;;;;8.98;4.32;;;21.50;58.90;;;;;;5056537;28;20071;-43
2023/09/29 03:55:57;;;;;;;7.45;3.83;;;21.50;58.90;;;;;;5059409;28;20099;-44
2023/09/29 03:58:24;;;;;;;8.13;3.72;;;21.50;59.00;;;;;;5058763;28;20052;-45
2023/09/29 04:00:53;;;;;;;6.93;4.18;;;21.50;58.90;;;;;;5054951;28;20056;-41
2023/09/29 04:03:20;;;;;;;7.72;4.00;;;21.50;58.90;;;;;;5055862;28;20048;-43
2023/09/29 04:05:47;;;;;;;5.75;3.50;;;21.50;58.90;;;;;;5060906;28;20049;-44
2023/09/29 04:08:14;;;;;;;5.75;3.80;;;21.50;58.90;;;;;;5062249;28;20631;-42
2023/09/29 04:10:42;;;;;;;7.15;3.25;;;21.60;59.00;;;;;;5059545;28;20531;-44
2023/09/29 04:13:09;;;;;;;5.57;3.78;;;21.50;58.90;;;;;;5060517;28;20134;-43
2023/09/29 04:15:36;;;;;;;8.93;3.85;;;21.50;58.90;;;;;;5059410;28;20385;-43
2023/09/29 04:18:06;;;;;;;75.05;42.33;;;21.50;58.90;;;;;;5059200;28;20412;-43
2023/09/29 04:20:33;;;;;;;39.50;23.13;;;21.50;58.90;;;;;;5059955;28;20057;-42
2023/09/29 04:23:00;;;;;;;28.98;16.17;;;21.50;58.90;;;;;;5058277;28;20052;-43
2023/09/29 04:25:28;;;;;;;11.48;6.00;;;21.50;58.90;;;;;;5060589;28;20131;-43
2023/09/29 04:27:55;;;;;;;9.35;4.30;;;21.50;58.90;;;;;;5060636;28;20048;-44
2023/09/29 04:30:22;;;;;;;6.80;3.75;;;21.50;58.90;;;;;;5058598;28;20068;-45
2023/09/29 04:32:49;;;;;;;6.93;3.97;;;21.50;58.80;;;;;;5058794;28;20048;-41
2023/09/29 04:35:18;;;;;;;7.45;3.85;;;21.50;58.90;;;;;;5058159;28;20049;-42
2023/09/29 04:37:45;;;;;;;6.30;3.78;;;21.50;58.80;;;;;;5062477;28;20056;-44
2023/09/29 04:40:13;;;;;;;5.40;3.38;;;21.50;58.80;;;;;;5057623;28;20060;-42
2023/09/29 04:42:40;;;;;;;5.25;3.45;;;21.50;58.80;;;;;;5059274;28;20049;-45
2023/09/29 04:45:09;;;;;;;6.25;3.50;;;21.50;58.90;;;;;;5059286;28;20044;-44
2023/09/29 04:47:36;;;;;;;5.50;3.20;;;21.60;58.90;;;;;;5061199;28;20081;-43
2023/09/29 04:50:04;;;;;;;6.60;3.38;;;21.50;58.90;;;;;;5061749;28;20514;-41
2023/09/29 04:52:33;;;;;;;6.07;3.30;;;21.50;58.80;;;;;;5061605;28;20060;-44
2023/09/29 04:55:01;;;;;;;10.40;3.85;;;21.50;58.80;;;;;;5058816;28;20055;-41
2023/09/29 04:57:28;;;;;;;5.43;2.95;;;21.50;58.70;;;;;;5061042;28;20056;-41
2023/09/29 04:59:55;;;;;;;8.38;4.20;;;21.50;58.70;;;;;;5059240;28;20419;-43
2023/09/29 05:02:24;;;;;;;15.10;4.40;;;21.50;58.70;;;;;;5059486;28;20064;-42
2023/09/29 05:04:51;;;;;;;48.83;27.67;;;21.60;58.80;;;;;;5060399;28;20055;-44
2023/09/29 05:07:19;;;;;;;14.85;7.75;;;21.50;58.70;;;;;;5060789;28;20066;-41
2023/09/29 05:09:48;;;;;;;6.80;3.65;;;21.50;58.70;;;;;;5059133;28;20052;-44
2023/09/29 05:12:15;;;;;;;6.97;3.70;;;21.50;58.70;;;;;;5059962;28;20064;-44
2023/09/29 05:14:42;;;;;;;9.00;3.47;;;21.50;58.70;;;;;;5058551;28;20053;-43
2023/09/29 05:17:09;;;;;;;5.57;3.00;;;21.50;58.70;;;;;;5057525;28;20044;-43
2023/09/29 05:19:36;;;;;;;8.38;3.30;;;21.50;58.70;;;;;;5058884;28;20060;-43
2023/09/29 05:22:03;;;;;;;5.80;3.05;;;21.50;58.70;;;;;;5060043;28;21020;-45
2023/09/29 05:24:31;;;;;;;11.02;3.28;;;21.50;58.70;;;;;;5057989;28;20052;-42
2023/09/29 05:26:59;;;;;;;7.63;3.22;;;21.60;58.70;;;;;;5060136;28;20053;-43
2023/09/29 05:29:26;;;;;;;14.30;6.75;;;21.50;58.70;;;;;;5059680;28;20504;-42
2023/09/29 05:31:53;;;;;;;7.43;3.00;;;21.60;58.70;;;;;;5058432;28;20409;-42
2023/09/29 05:34:21;;;;;;;8.77;2.95;;;21.60;58.70;;;;;;5060091;28;20049;-42
2023/09/29 05:36:48;;;;;;;5.82;2.72;;;21.60;58.90;;;;;;5060474;28;20052;-41
2023/09/29 05:39:15;;;;;;;7.53;3.05;;;21.60;58.70;;;;;;5061040;28;20071;-36
2023/09/29 05:41:42;;;;;;;6.10;2.97;;;21.60;58.70;;;;;;5058618;28;20060;-36
2023/09/29 05:44:11;;;;;;;7.60;2.80;;;21.60;58.70;;;;;;5060888;28;20048;-36
2023/09/29 05:46:38;;;;;;;7.07;2.97;;;21.60;58.70;;;;;;5059575;28;20060;-36
2023/09/29 05:49:06;;;;;;;5.85;2.85;;;21.60;58.70;;;;;;5058735;28;20495;-36
2023/09/29 05:51:33;;;;;;;5.40;2.83;;;21.60;58.70;;;;;;5058917;28;20051;-39
2023/09/29 05:54:02;;;;;;;10.15;3.65;;;21.60;58.70;;;;;;5060061;28;20048;-38
2023/09/29 05:56:29;;;;;;;7.22;3.03;;;21.60;58.70;;;;;;5059790;28;20063;-37
2023/09/29 05:58:57;;;;;;;6.30;3.03;;;21.60;58.70;;;;;;5059521;28;20052;-38
2023/09/29 06:01:25;;;;;;;6.65;2.63;;;21.60;58.70;;;;;;5057471;28;20536;-37
2023/09/29 06:03:53;;;;;;;7.15;2.80;;;21.60;58.80;;;;;;5058868;28;20067;-37
2023/09/29 06:06:20;;;;;;;5.22;2.65;;;21.60;58.80;;;;;;5060126;28;20048;-37
2023/09/29 06:08:47;;;;;;;6.57;3.13;;;21.60;58.90;;;;;;5061289;28;20048;-36
2023/09/29 06:11:14;;;;;;;5.47;3.53;;;21.60;58.80;;;;;;5058394;28;20055;-36
2023/09/29 06:13:42;;;;;;;7.38;3.05;;;21.60;58.80;;;;;;5059097;28;20049;-37
2023/09/29 06:16:09;;;;;;;6.40;3.30;;;21.60;58.80;;;;;;5055979;28;20059;-36
2023/09/29 06:18:38;;;;;;;4.75;2.95;;;21.60;58.90;;;;;;5059426;28;20091;-36
2023/09/29 06:21:05;;;;;;;6.32;3.05;;;21.60;58.90;;;;;;5059421;28;20067;-38
2023/09/29 06:23:32;;;;;;;7.20;2.90;;;21.60;58.90;;;;;;5060412;28;20060;-37
2023/09/29 06:26:00;;;;;;;4.70;2.95;;;21.60;58.90;;;;;;5058977;28;20053;-39
2023/09/29 06:28:27;;;;;;;5.20;2.88;;;21.60;58.90;;;;;;5056180;28;20053;-37
2023/09/29 06:30:56;;;;;;;5.38;3.17;;;21.60;59.00;;;;;;5056784;28;20488;-37
2023/09/29 06:33:24;;;;;;;7.25;2.90;;;21.70;59.10;;;;;;5055907;28;20048;-39
2023/09/29 06:35:53;;;;;;;6.10;2.83;;;21.60;59.00;;;;;;5057096;28;20053;-38
2023/09/29 06:38:20;;;;;;;6.82;3.10;;;21.60;59.00;;;;;;5057771;28;20068;-38
2023/09/29 06:40:48;;;;;;;7.15;2.90;;;21.70;59.00;;;;;;5058595;28;20564;-36
2023/09/29 06:43:16;;;;;;;6.53;2.70;;;21.70;59.10;;;;;;5056565;28;20048;-37
2023/09/29 06:45:43;;;;;;;6.18;2.80;;;21.70;59.10;;;;;;5057545;28;20508;-37
2023/09/29 06:48:10;;;;;;;5.97;3.17;;;21.70;59.10;;;;;;5059156;28;20044;-43
2023/09/29 06:50:37;;;;;;;11.43;3.33;;;21.70;59.10;;;;;;5058777;28;20048;-41
2023/09/29 06:53:06;;;;;;;6.50;2.90;;;21.80;59.20;;;;;;5059305;28;20053;-43
2023/09/29 06:55:33;;;;;;;5.63;2.78;;;21.80;59.20;;;;;;5061573;28;20419;-44
2023/09/29 06:58:04;;;;;;;17.35;3.33;;;21.80;59.10;;;;;;5060033;28;20488;-42
2023/09/29 07:00:31;;;;;;;7.00;2.78;;;21.80;59.10;;;;;;5056567;28;20053;-42
2023/09/29 07:02:59;;;;;;;5.28;2.60;;;21.90;59.10;;;;;;5060403;28;20056;-42
2023/09/29 07:05:26;;;;;;;8.45;2.97;;;21.90;59.20;;;;;;5061536;28;20060;-41
2023/09/29 07:07:54;;;;;;;4.47;2.80;;;21.90;59.10;;;;;;5060894;28;20061;-43
2023/09/29 07:10:23;;;;;;;7.63;2.92;;;22.00;59.20;;;;;;5060380;28;20074;-41
2023/09/29 07:12:50;;;;;;;7.15;2.60;;;22.00;59.10;;;;;;5059839;28;20405;-43
2023/09/29 07:15:17;;;;;;;4.43;2.78;;;22.00;59.00;;;;;;5058691;28;20063;-42
2023/09/29 07:17:45;;;;;;;5.80;2.95;;;22.10;59.00;;;;;;5058268;28;20416;-42
2023/09/29 07:20:13;;;;;;;5.20;3.13;;;22.10;58.90;;;;;;5059467;28;20638;-44
2023/09/29 07:22:40;;;;;;;5.55;3.03;;;22.10;58.90;;;;;;5059962;28;20060;-42
2023/09/29 07:25:08;;;;;;;8.98;3.40;;;22.20;58.90;;;;;;5061257;28;20057;-44
2023/09/29 07:27:36;;;;;;;6.78;2.85;;;22.20;58.90;;;;;;5060922;28;20413;-43
2023/09/29 07:30:04;;;;;;;6.43;3.15;;;22.20;58.80;;;;;;5059399;28;20060;-43
2023/09/29 07:32:32;;;;;;;4.60;2.90;;;22.30;58.80;;;;;;5060708;28;20068;-43
2023/09/29 07:34:59;;;;;;;4.85;2.95;;;22.30;58.70;;;;;;5060283;28;20060;-42
2023/09/29 07:37:26;;;;;;;8.63;3.53;;;22.30;58.60;;;;;;5059138;28;20500;-42
2023/09/29 07:39:53;;;;;;;6.03;3.33;;;22.40;58.60;;;;;;5057257;28;20059;-42
2023/09/29 07:42:21;;;;;;;8.32;2.92;;;22.40;58.50;;;;;;5057472;28;20139;-43
2023/09/29 07:44:49;;;;;;;7.10;3.30;;;22.40;58.50;;;;;;5061614;28;20044;-42
2023/09/29 07:47:17;;;;;;;7.00;3.10;;;22.40;58.50;;;;;;5058937;28;20044;-41
2023/09/29 07:49:45;;;;;;;7.55;4.75;;;22.50;58.50;;;;;;5059699;28;20048;-44
2023/09/29 07:52:12;;;;;;;8.80;4.50;;;22.50;58.40;;;;;;5059182;28;20052;-44
2023/09/29 07:54:39;;;;;;;5.03;3.10;;;22.50;58.40;;;;;;5059152;28;20488;-42
2023/09/29 07:57:07;;;;;;;8.48;2.83;;;22.50;58.40;;;;;;5057522;28;20049;-40
2023/09/29 07:59:34;;;;;;;5.50;3.00;;;22.60;59.00;;;;;;5060937;28;20048;-45
2023/09/29 08:02:03;;;;;;;5.13;3.05;;;22.60;58.60;;;;;;5059052;28;20053;-43
2023/09/29 08:04:30;;;;;;;7.93;3.13;;;22.60;58.60;;;;;;5059346;28;20057;-43
2023/09/29 08:06:57;;;;;;;6.10;3.30;;;22.70;58.60;;;;;;5059892;28;20420;-42
2023/09/29 08:09:24;;;;;;;6.47;3.42;;;22.70;58.80;;;;;;5060905;28;20056;-43
2023/09/29 08:11:51;;;;;;;6.22;3.20;;;22.80;58.70;;;;;;5060733;28;20053;-42
2023/09/29 08:14:19;;;;;;;6.10;3.50;;;22.80;58.60;;;;;;5059222;28;20064;-45
2023/09/29 08:16:46;;;;;;;6.03;3.00;;;22.90;58.60;;;;;;5051600;28;20480;-42
2023/09/29 08:19:15;;;;;;;5.95;3.38;;;22.90;58.50;;;;;;5055004;28;20504;-41
2023/09/29 08:21:45;;;;;;;8.07;3.05;;;23.00;58.50;;;;;;5056080;28;20884;-43
2023/09/29 08:24:16;;;;;;;4.70;3.25;;;23.00;58.50;;;;;;5058296;28;20749;-43
2023/09/29 08:30:24;;;;;;;10.52;3.78;;;23.10;58.30;;;;;;5068070;28;20739;-45
2023/09/29 08:32:58;;;;;;;8.10;3.17;;;23.20;58.30;;;;;;5058645;28;20056;-41
2023/09/29 08:36:19;;;;;;;6.70;3.60;;;23.30;58.20;;;;;;5059654;28;20057;-46
2023/09/29 08:38:51;;;;;;;8.38;3.28;;;23.30;58.00;;;;;;5052192;28;20060;-43
2023/09/29 08:41:36;;;;;;;7.72;3.72;;;23.40;57.80;;;;;;5058430;28;20061;-43
2023/09/29 08:44:27;;;;;;;6.68;3.38;;;23.50;57.60;;;;;;5057260;28;20040;-42
2023/09/29 08:47:20;;;;;;;5.20;3.05;;;23.60;57.60;;;;;;5058582;28;20063;-42
2023/09/29 08:49:52;;;;;;;5.47;3.30;;;23.60;57.40;;;;;;5059316;28;20194;-48
2023/09/29 08:52:53;;;;;;;9.00;3.60;;;23.70;57.50;;;;;;5059146;28;20052;-45
2023/09/29 08:55:49;;;;;;;5.43;3.05;;;23.70;57.20;;;;;;5062640;28;20056;-45
2023/09/29 08:58:37;;;;;;;7.65;3.70;;;23.70;56.90;;;;;;5061410;28;20048;-43
2023/09/29 09:01:07;;;;;;;8.40;3.55;;;23.80;56.90;;;;;;5057598;28;20048;-43
2023/09/29 09:03:35;;;;;;;5.60;3.50;;;23.80;56.90;;;;;;5063821;28;20056;-46
2023/09/29 09:06:02;;;;;;;5.38;3.53;;;23.80;57.40;;;;;;5063352;28;20052;-43
2023/09/29 09:08:29;;;;;;;8.60;3.60;;;23.90;56.80;;;;;;5063814;28;20488;-46
2023/09/29 09:11:02;;;;;;;5.15;3.40;;;23.90;56.70;;;;;;5063398;28;20056;-46
2023/09/29 09:13:30;;;;;;;9.20;3.65;;;23.90;56.60;;;;;;5062820;28;20519;-44
2023/09/29 09:15:58;;;;;;;17.08;3.90;;;23.90;56.50;;;;;;5062038;28;20067;-43
2023/09/29 09:18:27;;;;;;;10.55;3.90;;;23.90;56.50;;;;;;5062774;28;20060;-47
2023/09/29 09:20:54;;;;;;;8.27;3.70;;;24.00;56.50;;;;;;5063026;28;20053;-47
2023/09/29 09:23:21;;;;;;;9.57;3.90;;;24.00;56.50;;;;;;5062591;28;20051;-45
2023/09/29 09:25:49;;;;;;;9.52;3.92;;;24.00;56.50;;;;;;5063161;28;21067;-45
2023/09/29 09:28:19;;;;;;;8.32;3.75;;;24.00;56.50;;;;;;5063262;28;20048;-48
2023/09/29 09:30:51;;;;;;;8.70;4.28;;;24.00;56.50;;;;;;5061061;28;20512;-48
2023/09/29 09:33:21;;;;;;;8.23;4.03;;;24.00;56.50;;;;;;5065621;28;20067;-45
2023/09/29 09:35:49;;;;;;;6.63;3.40;;;24.10;56.70;;;;;;5084251;28;20047;-46
2023/09/29 09:38:17;;;;;;;13.88;3.97;;;24.10;56.60;;;;;;5083053;28;20134;-45
2023/09/29 09:40:45;;;;;;;7.45;3.65;;;24.10;56.70;;;;;;5083003;28;20062;-43
2023/09/29 09:43:12;;;;;;;5.97;4.00;;;24.10;56.60;;;;;;5082934;28;20052;-44
2023/09/29 09:45:44;;;;;;;7.93;3.90;;;24.10;56.70;;;;;;5080456;28;20048;-44
2023/09/29 09:48:15;;;;;;;9.30;3.97;;;24.20;56.70;;;;;;5082436;28;20062;-44
2023/09/29 09:50:45;;;;;;;6.40;3.35;;;24.30;56.60;;;;;;5083562;28;20519;-44
2023/09/29 09:53:13;;;;;;;8.43;3.80;;;24.30;56.50;;;;;;5083078;28;20059;-43
2023/09/29 09:55:44;;;;;;;5.55;3.60;;;24.40;56.50;;;;;;5082393;28;20059;-43
2023/09/29 09:58:14;;;;;;;8.68;3.80;;;24.40;56.50;;;;;;5083090;28;20522;-43
2023/09/29 10:00:46;;;;;;;6.25;3.70;;;24.50;56.40;;;;;;5080582;28;20059;-43
2023/09/29 10:03:16;;;;;;;6.30;3.75;;;24.50;56.30;;;;;;5082143;28;20415;-43
2023/09/29 10:05:51;;;;;;;9.40;3.25;;;24.60;56.10;;;;;;5084062;28;20056;-45
2023/09/29 10:08:30;;;;;;;7.30;3.47;;;24.60;56.40;;;;;;5083129;28;20056;-44
2023/09/29 10:11:10;;;;;;;6.80;3.85;;;24.60;56.20;;;;;;5082319;28;20123;-46
2023/09/29 10:13:38;;;;;;;7.18;3.50;;;24.70;56.30;;;;;;5082614;28;20056;-41
2023/09/29 10:16:07;;;;;;;10.68;4.00;;;24.80;56.40;;;;;;5081286;28;20055;-42
2023/09/29 10:18:36;;;;;;;11.38;3.60;;;24.80;56.00;;;;;;5082239;28;20059;-45
2023/09/29 10:21:07;;;;;;;8.98;3.80;;;24.90;55.90;;;;;;5082950;28;20056;-43
2023/09/29 10:23:45;;;;;;;6.70;3.58;;;24.90;55.80;;;;;;5082933;28;20419;-40
2023/09/29 10:26:13;;;;;;;9.00;4.05;;;25.00;55.50;;;;;;5082006;28;20063;-40
2023/09/29 10:28:41;;;;;;;6.38;3.72;;;25.10;55.40;;;;;;5082095;28;20055;-42
2023/09/29 10:31:13;;;;;;;8.90;3.50;;;25.10;55.20;;;;;;5081023;28;20506;-43
2023/09/29 10:33:53;;;;;;;6.72;3.15;;;25.20;55.20;;;;;;5081586;28;20070;-43
2023/09/29 10:36:23;;;;;;;9.77;3.70;;;25.30;55.00;;;;;;5083310;28;20055;-41
2023/09/29 10:38:50;;;;;;;7.13;3.88;;;25.30;55.00;;;;;;5083592;28;20059;-43
2023/09/29 10:41:19;;;;;;;11.18;3.92;;;25.40;55.00;;;;;;5082126;28;20056;-44
2023/09/29 10:43:48;;;;;;;13.30;3.65;;;25.40;54.80;;;;;;5082441;28;20419;-44
2023/09/29 10:46:17;;;;;;;7.90;3.70;;;25.50;54.60;;;;;;5080700;28;20059;-41
2023/09/29 10:48:45;;;;;;;9.52;3.85;;;25.50;54.30;;;;;;5081063;28;20051;-44
2023/09/29 10:51:21;;;;;;;10.25;3.45;;;25.50;54.40;;;;;;5083154;28;20056;-41
2023/09/29 10:53:49;;;;;;;25.88;3.80;;;25.50;53.80;;;;;;5081614;28;20059;-41
2023/09/29 10:56:19;;;;;;;9.23;2.90;;;25.50;53.70;;;;;;5081898;28;20526;-43
2023/09/29 10:58:48;;;;;;;9.43;3.17;;;25.50;53.60;;;;;;5081384;28;20060;-42
2023/09/29 11:01:25;;;;;;;5.93;3.15;;;25.50;53.60;;;;;;5080763;28;20066;-42
2023/09/29 11:03:52;;;;;;;7.20;3.30;;;25.50;53.60;;;;;;5080903;28;20047;-42
2023/09/29 11:06:20;;;;;;;8.38;3.47;;;25.50;54.40;;;;;;5082881;28;20055;-40
2023/09/29 11:08:53;;;;;;;6.05;3.67;;;25.50;53.50;;;;;;5079590;28;20076;-46
2023/09/29 11:11:20;;;;;;;4.32;2.58;;;25.50;53.40;;;;;;5079289;28;20059;-45
2023/09/29 11:13:54;;;;;;;6.20;2.97;;;25.40;53.20;;;;;;5081626;28;20059;-40
2023/09/29 11:16:25;;;;;;;6.93;2.88;;;25.40;53.10;;;;;;5080313;28;20062;-42
2023/09/29 11:18:56;;;;;;;4.47;2.50;;;25.40;52.80;;;;;;5081870;28;20051;-40
2023/09/29 11:21:33;;;;;;;6.20;3.15;;;25.40;52.80;;;;;;5076144;28;20061;-43
2023/09/29 11:24:05;;;;;;;6.70;2.78;;;25.40;52.40;;;;;;5077463;28;20480;-44
2023/09/29 11:26:33;;;;;;;7.43;2.70;;;25.30;52.50;;;;;;5077326;28;20052;-44
2023/09/29 11:29:00;;;;;;;6.30;2.78;;;25.30;52.50;;;;;;5079246;28;20062;-36
2023/09/29 11:31:29;;;;;;;4.63;2.60;;;25.20;52.50;;;;;;5078152;28;20063;-36
2023/09/29 11:33:57;;;;;;;6.60;2.60;;;25.20;52.50;;;;;;5076291;28;20056;-35
2023/09/29 11:36:27;;;;;;;7.85;3.47;;;25.20;52.60;;;;;;5079376;28;20044;-36
2023/09/29 11:38:55;;;;;;;9.38;3.25;;;25.20;52.20;;;;;;5077802;28;20059;-36
2023/09/29 11:41:23;;;;;;;9.93;4.18;;;25.20;52.10;;;;;;5080657;28;20389;-39
2023/09/29 11:43:50;;;;;;;8.45;4.18;;;25.10;52.10;;;;;;5081990;28;20060;-34
2023/09/29 11:46:18;;;;;;;11.73;4.78;;;25.10;51.60;;;;;;5079966;28;20441;-35
2023/09/29 11:48:47;;;;;;;10.30;4.60;;;25.10;51.50;;;;;;5080441;28;20063;-37
2023/09/29 11:51:14;;;;;;;15.93;5.47;;;25.10;51.30;;;;;;5081721;28;20052;-35
2023/09/29 11:53:42;;;;;;;17.40;6.35;;;25.00;51.00;;;;;;5076635;28;20408;-35
2023/09/29 11:56:10;;;;;;;19.83;8.65;;;25.00;50.60;;;;;;5081029;28;20052;-36
2023/09/29 11:58:38;;;;;;;21.42;7.57;;;25.00;49.70;;;;;;5080904;28;20052;-35
2023/09/29 12:01:06;;;;;;;18.02;8.38;;;24.90;49.90;;;;;;5079848;28;20054;-35
2023/09/29 12:03:34;;;;;;;22.13;9.05;;;25.00;49.90;;;;;;5080782;28;20052;-35
2023/09/29 12:06:03;;;;;;;17.50;7.90;;;24.90;50.00;;;;;;5080840;28;20048;-36
2023/09/29 12:08:30;;;;;;;21.45;9.60;;;24.90;49.90;;;;;;5081444;28;20059;-35
2023/09/29 12:10:59;;;;;;;32.30;10.35;;;24.90;50.10;;;;;;5081060;28;20058;-35
2023/09/29 12:13:29;;;;;;;25.38;10.25;;;24.90;50.00;;;;;;5081022;28;20400;-36
2023/09/29 12:15:56;;;;;;;24.20;10.10;;;24.90;49.10;;;;;;5080861;28;20059;-36
2023/09/29 12:18:26;;;;;;;23.85;10.55;;;24.90;49.40;;;;;;5082192;28;20483;-35
2023/09/29 12:20:56;;;;;;;24.40;10.68;;;24.90;49.40;;;;;;5081028;28;20052;-36
2023/09/29 12:23:24;;;;;;;22.63;10.27;;;24.90;49.50;;;;;;5080765;28;20082;-37
2023/09/29 12:25:51;;;;;;;23.15;9.80;;;24.90;49.50;;;;;;5080271;28;20385;-35
2023/09/29 12:28:19;;;;;;;26.83;10.82;;;24.90;49.30;;;;;;5082972;28;20068;-35
2023/09/29 12:30:47;;;;;;;25.42;10.80;;;24.90;49.30;;;;;;5083787;28;20056;-35
2023/09/29 12:33:14;;;;;;;30.83;12.07;;;24.90;48.90;;;;;;5084958;28;20055;-36
2023/09/29 12:35:42;;;;;;;26.13;10.70;;;24.90;49.20;;;;;;5084467;28;20047;-36
2023/09/29 12:38:09;;;;;;;30.08;11.77;;;24.90;49.00;;;;;;5084661;28;20060;-35
2023/09/29 12:40:38;;;;;;;29.77;12.60;;;24.90;48.80;;;;;;5083972;28;20063;-41
2023/09/29 12:43:05;;;;;;;33.17;14.13;;;24.90;49.00;;;;;;5084555;28;20055;-41
2023/09/29 12:45:32;;;;;;;34.28;13.60;;;24.90;48.90;;;;;;5084460;28;20416;-39
2023/09/29 12:48:00;;;;;;;37.88;15.90;;;24.90;48.80;;;;;;5084446;28;20404;-38
2023/09/29 12:50:27;;;;;;;42.13;15.95;;;25.00;48.70;;;;;;5082121;28;20079;-38
2023/09/29 12:52:54;;;;;;;38.90;16.13;;;24.90;48.50;;;;;;5084200;28;20414;-38
2023/09/29 12:55:22;;;;;;;34.95;15.77;;;24.90;48.20;;;;;;5084440;28;20055;-39